7°C Temp
5°C Dewpoint
87% Humidity
Temperature
11 KM/H
7 MPH
6 KTS
150°
South South
East

Wind Speed
Overcast
Conditions
Pressure 1025.92 (hPa) - 30.3 (in)
Visibility 6.2 (mi) - 10.0 (km)

Current Conditions
EKCH
Location 55(km)
Metar :EKCH 260820Z AUTO 15006KT 9999 OVC033/// 07/05 Q1026 NOSIG
Sat 26th November 09:20 am

Airport
  Metar Aviation API Data Provided by https://www.checkwx.com/ PHP scripts by weather34.com ©2022